Time;durP1;ratioP1;P1;durP2;ratioP2;P2;SDS_P1;SDS_P2;PMS_P1;PMS_P2;Temp;Humidity;BMP_temperature;BMP_pressure;BME280_temperature;BME280_humidity;BME280_pressure;Samples;Min_cycle;Max_cycle;Signal;HPM_P1;HPM_P2
2021/03/26 00:01:23;;;;;;;18.35;13.45;;;12.80;57.90;;;;;;2064030;28;20315;-61
2021/03/26 00:02:45;;;;;;;16.38;12.80;;;12.80;58.10;;;;;;2066496;28;20096;-60
2021/03/26 00:04:07;;;;;;;19.27;12.65;;;12.80;57.90;;;;;;2072471;28;20034;-60
2021/03/26 00:05:27;;;;;;;19.38;13.55;;;12.70;57.80;;;;;;2059149;28;20034;-59
2021/03/26 00:06:49;;;;;;;21.17;14.40;;;12.70;57.80;;;;;;2060332;28;20469;-61
2021/03/26 00:08:13;;;;;;;21.45;13.48;;;12.70;57.80;;;;;;2068355;28;20045;-61
2021/03/26 00:09:36;;;;;;;18.98;13.65;;;12.70;57.90;;;;;;2058333;28;20027;-61
2021/03/26 00:10:57;;;;;;;20.17;14.45;;;12.70;57.90;;;;;;2060096;28;20034;-60
2021/03/26 00:12:18;;;;;;;20.58;14.65;;;12.70;57.90;;;;;;2070658;28;20109;-60
2021/03/26 00:13:41;;;;;;;20.38;14.20;;;12.70;57.90;;;;;;2058277;28;20042;-61
2021/03/26 00:15:03;;;;;;;22.60;14.90;;;12.70;58.00;;;;;;2055671;28;20035;-60
2021/03/26 00:16:25;;;;;;;19.63;13.88;;;12.70;58.00;;;;;;2062332;28;20254;-60
2021/03/26 00:17:46;;;;;;;20.45;14.15;;;12.60;57.80;;;;;;2063843;28;20042;-60
2021/03/26 00:19:07;;;;;;;18.42;13.93;;;12.60;57.80;;;;;;2072155;28;20045;-60
2021/03/26 00:20:28;;;;;;;19.23;13.77;;;12.60;57.90;;;;;;2056496;28;20049;-60
2021/03/26 00:21:49;;;;;;;21.15;14.57;;;12.60;58.00;;;;;;2060793;28;20104;-60
2021/03/26 00:23:10;;;;;;;20.67;13.85;;;12.60;58.00;;;;;;2069591;28;20033;-60
2021/03/26 00:24:31;;;;;;;17.60;13.80;;;12.60;57.90;;;;;;2058506;28;20110;-60
2021/03/26 00:25:51;;;;;;;19.58;14.00;;;12.60;58.00;;;;;;2068186;28;20036;-59
2021/03/26 00:27:12;;;;;;;20.88;14.13;;;12.60;58.00;;;;;;2062535;28;20030;-59
2021/03/26 00:28:33;;;;;;;22.63;14.30;;;12.50;57.90;;;;;;2064099;28;20041;-59
2021/03/26 00:29:54;;;;;;;20.13;13.60;;;12.60;58.00;;;;;;2064513;28;20172;-60
2021/03/26 00:31:16;;;;;;;23.48;14.85;;;12.50;58.00;;;;;;2066187;28;20038;-60
2021/03/26 00:32:38;;;;;;;21.38;14.60;;;12.50;58.00;;;;;;2064133;28;20049;-60
2021/03/26 00:33:59;;;;;;;18.17;13.38;;;12.50;58.00;;;;;;2070862;28;20373;-60
2021/03/26 00:35:22;;;;;;;20.77;15.00;;;12.50;58.00;;;;;;2066975;28;20038;-60
2021/03/26 00:36:43;;;;;;;22.65;14.82;;;12.50;58.10;;;;;;2065172;28;20377;-59
2021/03/26 00:38:04;;;;;;;19.35;14.50;;;12.50;58.20;;;;;;2069912;28;20543;-60
2021/03/26 00:39:25;;;;;;;21.90;14.75;;;12.50;58.10;;;;;;2064014;28;20105;-59
2021/03/26 00:40:46;;;;;;;20.98;14.65;;;12.50;58.20;;;;;;2064634;28;20076;-60
2021/03/26 00:42:07;;;;;;;22.75;16.02;;;12.50;58.20;;;;;;2071528;28;20034;-60
2021/03/26 00:43:28;;;;;;;20.45;14.65;;;12.40;58.20;;;;;;2064734;28;20033;-61
2021/03/26 00:44:49;;;;;;;21.48;15.90;;;12.40;58.20;;;;;;2062084;28;20087;-61
2021/03/26 00:46:10;;;;;;;24.38;16.67;;;12.40;58.20;;;;;;2064690;28;20073;-60
2021/03/26 00:47:31;;;;;;;21.95;16.15;;;12.40;58.30;;;;;;2063961;28;20592;-60
2021/03/26 00:48:52;;;;;;;21.98;16.17;;;12.40;58.30;;;;;;2067347;28;20535;-61
2021/03/26 00:50:24;;;;;;;22.88;15.82;;;12.40;58.30;;;;;;2057500;28;20030;-60
2021/03/26 00:51:45;;;;;;;20.90;15.70;;;12.40;58.60;;;;;;2057482;28;20037;-60
2021/03/26 00:53:10;;;;;;;19.25;14.35;;;12.40;58.30;;;;;;2058615;28;20049;-60
2021/03/26 00:54:31;;;;;;;22.02;14.40;;;12.40;58.50;;;;;;2055224;28;20042;-61
2021/03/26 00:55:53;;;;;;;20.30;15.18;;;12.40;58.40;;;;;;2063464;28;20093;-60
2021/03/26 00:57:14;;;;;;;22.73;15.57;;;12.30;58.40;;;;;;2055314;28;20031;-60
2021/03/26 00:58:35;;;;;;;22.23;15.75;;;12.30;58.50;;;;;;2061450;28;20038;-60
2021/03/26 00:59:56;;;;;;;23.58;16.27;;;12.30;58.50;;;;;;2066061;28;20434;-61
2021/03/26 01:01:17;;;;;;;24.73;15.82;;;12.30;58.50;;;;;;2061066;28;20034;-60
2021/03/26 01:02:38;;;;;;;21.85;16.10;;;12.30;58.60;;;;;;2058561;28;20066;-60
2021/03/26 01:03:59;;;;;;;23.55;16.15;;;12.30;58.60;;;;;;2060304;28;20249;-60
2021/03/26 01:05:29;;;;;;;22.60;15.77;;;12.30;58.60;;;;;;2070314;28;20031;-60
2021/03/26 01:06:51;;;;;;;20.80;15.18;;;12.30;58.80;;;;;;2050550;28;20082;-60
2021/03/26 01:08:12;;;;;;;23.75;17.23;;;12.30;58.70;;;;;;2066208;28;20039;-60
2021/03/26 01:09:33;;;;;;;24.02;16.48;;;12.20;58.70;;;;;;2062264;28;20327;-59
2021/03/26 01:11:00;;;;;;;27.08;18.10;;;12.30;59.20;;;;;;2068713;28;20393;-60
2021/03/26 01:12:21;;;;;;;22.65;15.90;;;12.20;58.80;;;;;;2070007;28;20033;-61
2021/03/26 01:13:43;;;;;;;22.45;16.10;;;12.30;58.80;;;;;;2060192;28;20046;-60
2021/03/26 01:15:10;;;;;;;27.02;17.15;;;12.20;58.80;;;;;;2066120;28;20102;-59
2021/03/26 01:16:31;;;;;;;22.42;16.17;;;12.20;58.90;;;;;;2062583;28;20045;-60
2021/03/26 01:17:54;;;;;;;22.85;16.17;;;12.20;58.80;;;;;;2064941;28;20048;-60
2021/03/26 01:19:17;;;;;;;19.92;15.35;;;12.20;58.80;;;;;;2064214;28;20039;-59
2021/03/26 01:20:38;;;;;;;22.25;16.30;;;12.20;58.70;;;;;;2060606;28;20027;-59
2021/03/26 01:21:59;;;;;;;22.40;16.08;;;12.20;58.70;;;;;;2067711;28;20034;-60
2021/03/26 01:23:20;;;;;;;21.08;15.23;;;12.20;58.70;;;;;;2070129;28;20241;-61
2021/03/26 01:24:41;;;;;;;22.25;16.55;;;12.20;58.70;;;;;;2061106;28;20469;-61
2021/03/26 01:26:03;;;;;;;23.85;16.73;;;12.20;58.60;;;;;;2067667;28;20038;-60
2021/03/26 01:27:24;;;;;;;22.17;16.13;;;12.10;58.60;;;;;;2056022;28;20351;-61
2021/03/26 01:28:46;;;;;;;25.05;17.13;;;12.20;58.60;;;;;;2059192;28;20026;-60
2021/03/26 01:30:13;;;;;;;24.42;16.23;;;12.10;58.60;;;;;;2065561;28;20513;-59
2021/03/26 01:31:35;;;;;;;24.00;17.05;;;12.10;58.80;;;;;;2063642;28;20135;-60
2021/03/26 01:32:55;;;;;;;22.80;16.13;;;12.10;58.70;;;;;;2070811;28;20030;-60
2021/03/26 01:34:16;;;;;;;24.30;17.15;;;12.10;58.70;;;;;;2070506;28;20684;-60
2021/03/26 01:35:38;;;;;;;23.63;16.15;;;12.10;58.70;;;;;;2058045;28;20477;-61
2021/03/26 01:36:59;;;;;;;23.75;16.63;;;12.10;58.70;;;;;;2063631;28;20030;-61
2021/03/26 01:38:20;;;;;;;25.70;16.58;;;12.10;58.80;;;;;;2066726;28;20042;-60
2021/03/26 01:39:41;;;;;;;22.45;16.17;;;12.10;58.80;;;;;;2065014;28;20057;-60
2021/03/26 01:41:07;;;;;;;24.13;16.52;;;12.10;58.90;;;;;;2063274;28;20044;-59
2021/03/26 01:42:33;;;;;;;22.83;16.42;;;12.00;59.00;;;;;;2063860;28;20034;-60
2021/03/26 01:43:55;;;;;;;21.42;15.68;;;12.00;59.00;;;;;;2067066;28;20029;-60
2021/03/26 01:45:25;;;;;;;21.83;16.10;;;12.00;58.90;;;;;;2069089;28;20103;-60
2021/03/26 01:46:47;;;;;;;25.00;16.48;;;12.00;59.00;;;;;;2061490;28;20061;-60
2021/03/26 01:48:10;;;;;;;21.90;15.55;;;12.00;58.80;;;;;;2064522;28;20042;-60
2021/03/26 01:49:31;;;;;;;23.58;16.38;;;12.00;58.90;;;;;;2057148;28;20030;-61
2021/03/26 01:50:54;;;;;;;24.40;16.02;;;12.00;58.90;;;;;;2064328;28;20385;-59
2021/03/26 01:52:15;;;;;;;22.02;15.85;;;12.00;59.00;;;;;;2070250;28;20518;-59
2021/03/26 01:53:36;;;;;;;26.23;17.10;;;12.00;58.90;;;;;;2065425;28;20038;-60
2021/03/26 01:54:58;;;;;;;24.00;16.48;;;12.00;58.90;;;;;;2063528;28;20049;-61
2021/03/26 01:56:19;;;;;;;24.42;16.63;;;12.00;59.00;;;;;;2066246;28;20537;-61
2021/03/26 01:57:40;;;;;;;24.98;17.17;;;12.00;59.00;;;;;;2065580;28;20481;-60
2021/03/26 01:59:01;;;;;;;23.45;16.25;;;12.00;59.00;;;;;;2067938;28;20045;-61
2021/03/26 02:00:28;;;;;;;25.00;17.55;;;12.00;59.10;;;;;;2064152;28;20026;-61
2021/03/26 02:01:59;;;;;;;25.10;17.48;;;11.90;59.10;;;;;;2064148;28;20042;-60
2021/03/26 02:03:35;;;;;;;21.90;16.08;;;11.90;59.20;;;;;;2069500;28;20033;-62
2021/03/26 02:04:56;;;;;;;22.48;17.40;;;11.90;59.20;;;;;;2063793;28;20437;-60
2021/03/26 02:06:18;;;;;;;24.58;16.67;;;12.00;59.10;;;;;;2069333;28;20517;-61
2021/03/26 02:07:39;;;;;;;22.17;16.42;;;11.90;59.10;;;;;;2061607;28;20030;-61
2021/03/26 02:09:04;;;;;;;25.73;17.27;;;11.90;59.10;;;;;;2064035;28;20038;-60
2021/03/26 02:10:26;;;;;;;23.15;16.95;;;11.90;59.30;;;;;;2060560;28;20030;-61
2021/03/26 02:11:50;;;;;;;26.00;17.40;;;11.90;59.20;;;;;;2054341;28;20102;-60
2021/03/26 02:13:24;;;;;;;26.20;17.38;;;11.90;59.30;;;;;;2061502;28;20125;-61
2021/03/26 02:14:51;;;;;;;22.85;17.20;;;11.80;59.50;;;;;;2055611;28;20035;-60
2021/03/26 02:16:14;;;;;;;23.98;16.75;;;11.80;59.30;;;;;;2060666;28;20038;-60
2021/03/26 02:17:39;;;;;;;24.60;16.88;;;11.80;59.20;;;;;;2055654;28;20038;-60
2021/03/26 02:19:00;;;;;;;23.05;17.25;;;11.80;59.20;;;;;;2064679;28;20029;-60
2021/03/26 02:20:33;;;;;;;25.42;17.30;;;11.80;59.30;;;;;;2062595;28;20154;-59
2021/03/26 02:21:54;;;;;;;23.17;16.52;;;11.80;59.60;;;;;;2062565;28;20041;-60
2021/03/26 02:23:24;;;;;;;23.33;16.55;;;11.80;59.30;;;;;;2063126;28;20034;-60
2021/03/26 02:24:47;;;;;;;25.35;17.25;;;11.80;59.40;;;;;;2065317;28;20457;-62
2021/03/26 02:26:23;;;;;;;23.65;16.70;;;11.80;59.30;;;;;;2070113;28;20121;-60
2021/03/26 02:27:44;;;;;;;25.65;16.05;;;11.80;59.50;;;;;;2060899;28;20035;-60
2021/03/26 02:29:22;;;;;;;25.08;17.92;;;11.80;59.30;;;;;;2067636;28;20029;-60
2021/03/26 02:30:47;;;;;;;21.77;15.70;;;11.80;59.40;;;;;;2057544;28;20359;-60
2021/03/26 02:32:18;;;;;;;22.67;16.55;;;11.80;59.40;;;;;;2061100;28;20521;-62
2021/03/26 02:33:39;;;;;;;25.48;17.63;;;11.70;59.60;;;;;;2062354;28;20117;-60
2021/03/26 02:35:08;;;;;;;23.00;17.30;;;11.70;59.30;;;;;;2066447;28;20034;-60
2021/03/26 02:36:52;;;;;;;23.02;16.63;;;11.80;59.50;;;;;;2070665;28;20026;-60
2021/03/26 02:38:13;;;;;;;24.02;16.50;;;11.70;59.70;;;;;;2058721;28;20031;-60
2021/03/26 02:39:46;;;;;;;26.13;17.13;;;11.70;59.30;;;;;;2053445;28;20098;-60
2021/03/26 02:41:18;;;;;;;25.23;17.45;;;11.70;59.50;;;;;;2061583;28;20056;-61
2021/03/26 02:42:39;;;;;;;23.33;16.65;;;11.70;59.40;;;;;;2063325;28;20041;-60
2021/03/26 02:44:33;;;;;;;28.83;19.10;;;11.70;59.40;;;;;;2059767;28;20049;-60
2021/03/26 02:46:02;;;;;;;23.55;17.17;;;11.70;59.80;;;;;;2062488;28;20038;-61
2021/03/26 02:47:35;;;;;;;25.92;17.10;;;11.70;59.60;;;;;;2067694;28;20457;-60
2021/03/26 02:48:59;;;;;;;24.90;16.80;;;11.70;59.50;;;;;;2064157;28;20037;-61
2021/03/26 02:50:58;;;;;;;23.67;17.48;;;11.70;59.40;;;;;;2066964;28;20026;-62
2021/03/26 02:52:56;;;;;;;25.95;17.35;;;11.70;59.90;;;;;;2063450;28;20042;-61
2021/03/26 02:54:38;;;;;;;24.70;16.63;;;11.60;59.80;;;;;;2062735;28;20030;-60
2021/03/26 02:56:07;;;;;;;27.30;16.70;;;11.70;59.50;;;;;;2064165;28;20046;-60
2021/03/26 02:57:43;;;;;;;23.00;17.33;;;11.60;59.50;;;;;;2055969;28;20038;-61
2021/03/26 02:59:10;;;;;;;25.88;16.52;;;11.60;59.70;;;;;;2066877;28;20049;-61
2021/03/26 03:00:43;;;;;;;27.23;17.88;;;11.60;59.60;;;;;;2060949;28;20121;-60
2021/03/26 03:02:07;;;;;;;26.13;17.58;;;11.60;59.80;;;;;;2056256;28;20038;-60
2021/03/26 03:03:30;;;;;;;26.10;17.35;;;11.60;59.60;;;;;;2053571;28;20081;-59
2021/03/26 03:04:57;;;;;;;25.45;17.65;;;11.50;59.50;;;;;;2068584;28;20128;-59
2021/03/26 03:06:25;;;;;;;25.05;17.60;;;11.60;59.80;;;;;;2058017;28;20049;-60
2021/03/26 03:07:53;;;;;;;29.83;17.48;;;11.60;59.80;;;;;;2063984;28;20038;-60
2021/03/26 03:09:15;;;;;;;27.05;18.77;;;11.60;59.80;;;;;;2062581;28;20066;-60
2021/03/26 03:10:42;;;;;;;27.40;20.70;;;11.60;59.80;;;;;;2062331;28;20557;-61
2021/03/26 03:12:27;;;;;;;28.67;18.98;;;11.60;60.10;;;;;;2067373;28;20469;-61
2021/03/26 03:13:52;;;;;;;27.88;18.40;;;11.50;60.10;;;;;;2059035;28;20034;-60
2021/03/26 03:15:21;;;;;;;29.38;18.95;;;11.50;59.90;;;;;;2062103;28;20066;-60
2021/03/26 03:16:48;;;;;;;25.27;17.30;;;11.50;60.00;;;;;;2063924;28;20473;-60
2021/03/26 03:18:27;;;;;;;25.65;17.75;;;11.50;60.10;;;;;;2064310;28;20030;-61
2021/03/26 03:19:55;;;;;;;28.02;19.23;;;11.50;59.90;;;;;;2062224;28;20437;-60
2021/03/26 03:21:23;;;;;;;29.27;19.30;;;11.50;59.80;;;;;;2062917;28;20091;-60
2021/03/26 03:22:50;;;;;;;27.80;19.38;;;11.50;60.00;;;;;;2064414;28;20377;-60
2021/03/26 03:24:21;;;;;;;27.40;19.25;;;11.50;60.00;;;;;;2064318;28;20209;-61
2021/03/26 03:25:43;;;;;;;30.02;18.75;;;11.50;60.10;;;;;;2065683;28;20433;-60
2021/03/26 03:27:31;;;;;;;30.20;19.08;;;11.50;60.00;;;;;;2066796;28;20064;-59
2021/03/26 03:29:07;;;;;;;27.73;19.35;;;11.40;60.60;;;;;;2065032;28;20540;-59
2021/03/26 03:30:51;;;;;;;25.92;18.48;;;11.50;60.40;;;;;;2055700;28;20122;-60
2021/03/26 03:32:33;;;;;;;26.23;18.20;;;11.50;60.30;;;;;;2063627;28;20042;-61
2021/03/26 03:34:30;;;;;;;25.95;18.35;;;11.40;60.10;;;;;;2065149;28;20065;-59
2021/03/26 03:35:57;;;;;;;29.10;18.83;;;11.40;60.60;;;;;;2061993;28;20034;-61
2021/03/26 03:37:33;;;;;;;26.67;18.52;;;11.40;60.10;;;;;;2063695;28;20320;-59
2021/03/26 03:39:05;;;;;;;25.95;17.90;;;11.40;60.40;;;;;;2061954;28;20793;-60
2021/03/26 03:41:07;;;;;;;30.05;18.80;;;11.40;60.20;;;;;;2056384;28;20101;-61
2021/03/26 03:42:40;;;;;;;25.63;17.67;;;11.40;60.70;;;;;;2064172;28;20057;-59
2021/03/26 03:44:05;;;;;;;29.23;18.92;;;11.40;60.20;;;;;;2061710;28;20037;-61
2021/03/26 03:46:04;;;;;;;27.17;18.67;;;11.40;60.20;;;;;;2047905;28;20039;-61
2021/03/26 03:47:40;;;;;;;27.60;18.50;;;11.40;60.70;;;;;;2058743;28;20053;-60
2021/03/26 03:49:07;;;;;;;27.23;18.67;;;11.40;60.30;;;;;;2065294;28;20032;-60
2021/03/26 03:50:36;;;;;;;24.90;18.05;;;11.40;60.10;;;;;;2056760;28;20038;-60
2021/03/26 03:52:18;;;;;;;29.50;19.30;;;11.40;60.30;;;;;;2068114;28;20034;-59
2021/03/26 03:54:01;;;;;;;24.98;18.38;;;11.40;60.60;;;;;;2059438;28;20027;-61
2021/03/26 03:55:45;;;;;;;26.23;17.98;;;11.40;60.60;;;;;;2057910;28;20145;-59
2021/03/26 03:57:16;;;;;;;25.35;18.08;;;11.40;60.50;;;;;;2063935;28;20137;-60
2021/03/26 03:58:43;;;;;;;23.30;17.20;;;11.40;60.10;;;;;;2058114;28;20403;-62
2021/03/26 04:00:30;;;;;;;28.92;18.63;;;11.40;60.20;;;;;;2071485;28;20419;-59
2021/03/26 04:01:59;;;;;;;26.00;17.85;;;11.30;60.60;;;;;;2063594;28;20440;-60
2021/03/26 04:03:27;;;;;;;27.55;17.88;;;11.30;60.20;;;;;;2071291;28;20485;-60
2021/03/26 04:05:13;;;;;;;26.92;18.25;;;11.30;60.20;;;;;;2064237;28;20378;-60
2021/03/26 04:06:50;;;;;;;29.33;19.30;;;11.30;60.60;;;;;;2070845;28;20034;-60
2021/03/26 04:08:20;;;;;;;24.63;18.40;;;11.30;60.50;;;;;;2068867;28;20108;-59
2021/03/26 04:09:48;;;;;;;27.40;19.15;;;11.30;60.40;;;;;;2063773;28;20026;-60
2021/03/26 04:11:22;;;;;;;26.65;17.55;;;11.30;60.20;;;;;;2063225;28;20038;-60
2021/03/26 04:12:49;;;;;;;27.73;19.60;;;11.40;60.60;;;;;;2063983;28;20030;-60
2021/03/26 04:14:20;;;;;;;27.85;19.55;;;11.30;60.40;;;;;;2063032;28;20035;-60
2021/03/26 04:15:46;;;;;;;;;;;11.30;60.40;;;;;;2063832;28;20034;-59
2021/03/26 04:17:21;;;;;;;26.27;17.10;;;11.30;60.70;;;;;;2054847;28;19910;-61
2021/03/26 04:18:49;;;;;;;26.50;18.25;;;11.30;60.00;;;;;;2064350;28;20034;-61
2021/03/26 04:20:39;;;;;;;26.60;18.33;;;11.30;60.00;;;;;;2071333;28;20037;-59
2021/03/26 04:22:07;;;;;;;25.40;18.77;;;11.30;60.50;;;;;;2067180;28;20030;-61
2021/03/26 04:23:55;;;;;;;28.13;18.05;;;11.30;60.00;;;;;;2061547;28;20032;-61
2021/03/26 04:25:27;;;;;;;27.15;18.08;;;11.30;60.60;;;;;;2064713;28;20046;-61
2021/03/26 04:26:56;;;;;;;27.10;18.77;;;11.30;60.20;;;;;;2065987;28;20093;-61
2021/03/26 04:28:28;;;;;;;29.35;19.10;;;11.30;60.20;;;;;;2064696;28;20038;-61
2021/03/26 04:30:11;;;;;;;27.52;19.00;;;11.30;60.30;;;;;;2063765;28;20455;-60
2021/03/26 04:31:47;;;;;;;24.00;17.45;;;11.20;60.60;;;;;;2063301;28;20547;-61
2021/03/26 04:33:08;;;;;;;27.42;18.33;;;11.20;60.50;;;;;;2064252;28;20437;-61
2021/03/26 04:34:30;;;;;;;26.23;18.83;;;11.30;60.10;;;;;;2057085;28;20045;-61
2021/03/26 04:35:52;;;;;;;27.13;18.73;;;11.20;60.20;;;;;;2070761;28;20041;-60
2021/03/26 04:37:28;;;;;;;27.15;19.20;;;11.20;60.30;;;;;;2065461;28;20386;-60
2021/03/26 04:38:57;;;;;;;26.33;18.38;;;11.20;60.40;;;;;;2063249;28;20046;-61
2021/03/26 04:40:36;;;;;;;26.50;18.83;;;11.20;60.50;;;;;;2069570;28;20029;-61
2021/03/26 04:42:03;;;;;;;28.77;18.05;;;11.20;60.60;;;;;;2067098;28;20473;-61
2021/03/26 04:43:38;;;;;;;26.50;18.25;;;11.20;60.60;;;;;;2067223;28;20076;-60
2021/03/26 04:45:10;;;;;;;25.90;18.10;;;11.20;60.50;;;;;;2064489;28;20119;-60
2021/03/26 04:46:33;;;;;;;30.17;19.33;;;11.20;60.70;;;;;;2063178;28;20048;-62
2021/03/26 04:48:30;;;;;;;28.33;18.80;;;11.20;60.50;;;;;;2068298;28;20041;-61
2021/03/26 04:49:56;;;;;;;24.35;17.60;;;11.20;61.00;;;;;;2061792;28;20026;-61
2021/03/26 04:51:40;;;;;;;25.20;18.00;;;11.20;60.50;;;;;;2063663;28;20093;-60
2021/03/26 04:53:19;;;;;;;25.70;18.33;;;11.20;60.70;;;;;;2065763;28;20034;-60
2021/03/26 04:55:05;;;;;;;29.42;18.50;;;11.20;60.80;;;;;;2069221;28;20034;-60
2021/03/26 04:56:31;;;;;;;27.40;18.08;;;11.20;60.60;;;;;;2063506;28;20027;-60
2021/03/26 04:57:58;;;;;;;28.65;18.48;;;11.20;60.40;;;;;;2067976;28;20037;-61
2021/03/26 04:59:27;;;;;;;25.02;18.35;;;11.10;60.50;;;;;;2070143;28;20435;-61
2021/03/26 05:01:03;;;;;;;27.25;17.58;;;11.10;60.60;;;;;;2060204;28;20043;-60
2021/03/26 05:02:25;;;;;;;27.42;18.60;;;11.10;60.60;;;;;;2061806;28;20026;-61
2021/03/26 05:04:14;;;;;;;27.55;18.90;;;11.10;60.50;;;;;;2060946;28;20080;-60
2021/03/26 05:05:40;;;;;;;27.08;18.23;;;11.10;61.00;;;;;;2058063;28;20057;-61
2021/03/26 05:07:05;;;;;;;27.25;19.08;;;11.10;60.50;;;;;;2062428;28;20034;-61
2021/03/26 05:08:26;;;;;;;28.67;19.23;;;11.10;60.50;;;;;;2059089;28;20414;-60
2021/03/26 05:09:52;;;;;;;27.58;19.23;;;11.10;60.50;;;;;;2065645;28;20108;-61
2021/03/26 05:11:15;;;;;;;28.70;18.90;;;11.10;60.70;;;;;;2071242;28;20118;-60
2021/03/26 05:12:43;;;;;;;25.58;18.73;;;11.10;60.70;;;;;;2064253;28;20034;-60
2021/03/26 05:14:07;;;;;;;27.60;18.33;;;11.10;60.90;;;;;;2071735;28;20434;-61
2021/03/26 05:15:33;;;;;;;24.63;18.13;;;11.10;60.90;;;;;;2055857;28;20031;-61
2021/03/26 05:17:13;;;;;;;28.05;19.63;;;11.10;60.90;;;;;;2063922;28;20046;-60
2021/03/26 05:18:42;;;;;;;26.65;18.67;;;11.10;61.00;;;;;;2060458;28;20146;-61
2021/03/26 05:20:13;;;;;;;26.05;18.85;;;11.10;60.90;;;;;;2068478;28;20036;-61
2021/03/26 05:21:43;;;;;;;28.05;18.48;;;11.10;60.90;;;;;;2071222;28;20101;-61
2021/03/26 05:23:19;;;;;;;25.35;17.58;;;11.10;60.90;;;;;;2066505;28;20045;-61
2021/03/26 05:24:54;;;;;;;27.38;17.30;;;11.00;60.90;;;;;;2060869;28;20078;-61
2021/03/26 05:26:15;;;;;;;27.27;18.35;;;11.10;60.80;;;;;;2068700;28;20073;-61
2021/03/26 05:27:36;;;;;;;29.58;19.52;;;11.10;60.70;;;;;;2059483;28;20121;-60
2021/03/26 05:28:58;;;;;;;24.52;17.50;;;11.10;60.80;;;;;;2067484;28;20030;-61
2021/03/26 05:30:27;;;;;;;27.33;18.15;;;11.00;60.70;;;;;;2063012;28;20078;-60
2021/03/26 05:32:07;;;;;;;26.08;17.40;;;11.10;61.00;;;;;;2062290;28;20019;-60
2021/03/26 05:33:40;;;;;;;25.50;17.95;;;11.10;60.90;;;;;;2070517;28;20377;-60
2021/03/26 05:35:20;;;;;;;27.85;18.20;;;11.10;61.10;;;;;;2064997;28;20069;-60
2021/03/26 05:36:50;;;;;;;24.25;16.90;;;11.10;60.90;;;;;;2068663;28;20090;-60
2021/03/26 05:38:16;;;;;;;25.27;17.60;;;11.10;60.90;;;;;;2065606;28;20030;-60
2021/03/26 05:39:38;;;;;;;24.75;17.63;;;11.10;60.80;;;;;;2063451;28;20062;-61
2021/03/26 05:41:22;;;;;;;25.67;17.27;;;11.10;60.80;;;;;;2070525;28;20148;-60
2021/03/26 05:43:23;;;;;;;22.17;16.63;;;11.10;60.90;;;;;;2059498;28;20043;-61
2021/03/26 05:45:05;;;;;;;25.83;17.23;;;11.10;61.10;;;;;;2048453;28;20038;-60
2021/03/26 05:47:10;;;;;;;25.50;17.45;;;11.10;60.90;;;;;;2062751;28;20035;-61
2021/03/26 05:48:35;;;;;;;23.05;16.40;;;11.10;60.80;;;;;;2033120;29;20032;-61
2021/03/26 05:50:14;;;;;;;25.80;17.45;;;11.10;60.40;;;;;;2041221;28;20028;-61
2021/03/26 05:51:47;;;;;;;27.27;16.52;;;11.10;60.50;;;;;;2032544;29;20481;-60
2021/03/26 05:53:23;;;;;;;23.42;16.00;;;11.10;60.80;;;;;;2044904;28;20039;-60
2021/03/26 05:55:09;;;;;;;26.45;16.75;;;11.10;60.90;;;;;;2064898;28;20046;-60
2021/03/26 05:57:15;;;;;;;25.48;16.77;;;11.10;60.90;;;;;;2057247;28;20042;-60
2021/03/26 05:58:56;;;;;;;22.98;15.23;;;11.10;60.80;;;;;;2047103;28;20179;-61
2021/03/26 06:00:22;;;;;;;25.67;16.70;;;11.20;60.70;;;;;;2050362;28;20035;-60
2021/03/26 06:02:28;;;;;;;25.83;16.98;;;11.10;60.50;;;;;;2065497;28;20113;-60
2021/03/26 06:04:27;;;;;;;23.20;15.77;;;11.20;60.90;;;;;;2063758;28;20030;-60
2021/03/26 06:06:30;;;;;;;25.58;15.70;;;11.20;60.80;;;;;;2057749;28;20164;-60
2021/03/26 06:07:54;;;;;;;21.13;14.40;;;11.20;60.80;;;;;;2063327;28;20485;-60
2021/03/26 06:09:34;;;;;;;25.02;15.20;;;11.20;60.30;;;;;;2064275;28;20061;-60
2021/03/26 06:11:27;;;;;;;24.23;16.75;;;11.20;60.70;;;;;;2064739;28;20038;-59
2021/03/26 06:13:22;;;;;;;23.95;15.82;;;11.20;60.80;;;;;;2061684;28;20041;-59
2021/03/26 06:15:01;;;;;;;23.98;16.20;;;11.20;60.60;;;;;;2062100;28;20361;-60
2021/03/26 06:17:03;;;;;;;22.60;15.75;;;11.20;60.60;;;;;;2063320;28;20240;-60
2021/03/26 06:18:41;;;;;;;22.00;15.15;;;11.20;60.40;;;;;;2038430;29;20379;-59
2021/03/26 06:20:05;;;;;;;23.42;15.10;;;11.30;60.50;;;;;;2065248;28;20092;-60
2021/03/26 06:22:01;;;;;;;24.42;15.63;;;11.30;60.40;;;;;;2062690;28;20098;-60
2021/03/26 06:23:59;;;;;;;24.85;17.13;;;11.20;60.50;;;;;;2048788;28;20361;-60
2021/03/26 06:25:44;;;;;;;25.23;14.80;;;11.30;60.60;;;;;;2062927;28;20110;-59
2021/03/26 06:27:13;;;;;;;27.95;16.80;;;11.30;60.50;;;;;;2064442;28;20038;-60
2021/03/26 06:28:37;;;;;;;22.77;15.52;;;11.30;60.30;;;;;;2063458;28;20026;-61
2021/03/26 06:30:31;;;;;;;26.17;16.70;;;11.30;60.30;;;;;;2068074;28;20049;-61
2021/03/26 06:32:28;;;;;;;21.05;14.98;;;11.30;60.70;;;;;;2064473;28;20030;-61
2021/03/26 06:34:32;;;;;;;24.33;15.80;;;11.30;60.60;;;;;;2064273;28;20343;-60
2021/03/26 06:35:55;;;;;;;23.30;16.10;;;11.40;60.60;;;;;;2065702;28;20034;-61
2021/03/26 06:37:19;;;;;;;26.48;16.08;;;11.40;60.20;;;;;;2062878;28;20493;-62
2021/03/26 06:39:05;;;;;;;23.25;17.13;;;11.40;60.30;;;;;;2062966;28;20109;-61
2021/03/26 06:41:02;;;;;;;27.55;16.70;;;11.40;60.60;;;;;;2053862;28;20462;-59
2021/03/26 06:42:46;;;;;;;21.98;14.82;;;11.50;60.60;;;;;;2070698;28;20120;-61
2021/03/26 06:44:31;;;;;;;24.85;15.05;;;11.50;61.00;;;;;;2059781;28;20034;-61
2021/03/26 06:46:20;;;;;;;21.95;15.52;;;11.50;60.40;;;;;;2062035;28;20034;-61
2021/03/26 06:48:09;;;;;;;24.98;16.52;;;11.50;60.40;;;;;;2054628;28;20077;-61
2021/03/26 06:49:30;;;;;;;24.88;16.30;;;11.60;60.50;;;;;;2055974;28;20671;-61
2021/03/26 06:51:21;;;;;;;23.90;15.55;;;11.60;61.00;;;;;;2065169;28;20114;-61
2021/03/26 06:53:12;;;;;;;23.27;15.60;;;11.60;60.50;;;;;;2060842;28;20042;-61
2021/03/26 06:55:16;;;;;;;25.02;15.77;;;11.60;60.30;;;;;;2042456;28;20034;-61
2021/03/26 06:57:00;;;;;;;22.77;14.70;;;11.60;60.40;;;;;;2063963;28;20066;-60
2021/03/26 06:58:52;;;;;;;23.33;15.07;;;11.70;60.10;;;;;;2064204;28;20030;-61
2021/03/26 07:00:42;;;;;;;24.83;14.75;;;11.70;60.40;;;;;;2069923;28;20301;-60
2021/03/26 07:02:15;;;;;;;21.08;15.00;;;11.70;60.20;;;;;;2066762;28;20026;-61
2021/03/26 07:04:03;;;;;;;21.95;15.32;;;11.70;60.10;;;;;;2062335;28;20042;-61
2021/03/26 07:05:47;;;;;;;22.45;15.32;;;11.70;60.10;;;;;;2070596;28;20472;-61
2021/03/26 07:07:27;;;;;;;23.60;14.60;;;11.80;60.10;;;;;;2068344;28;20035;-61
2021/03/26 07:09:08;;;;;;;24.35;15.23;;;11.80;60.00;;;;;;2064181;28;20030;-61
2021/03/26 07:10:46;;;;;;;22.48;14.07;;;11.80;60.00;;;;;;2062743;28;20505;-61
2021/03/26 07:12:25;;;;;;;21.45;14.98;;;11.90;60.00;;;;;;2067243;28;20034;-61
2021/03/26 07:14:04;;;;;;;19.08;14.15;;;11.90;59.80;;;;;;2065765;28;20035;-61
2021/03/26 07:15:30;;;;;;;22.85;15.02;;;11.90;59.80;;;;;;2070033;28;20045;-61
2021/03/26 07:17:38;;;;;;;23.88;15.50;;;12.00;59.90;;;;;;2061931;28;20030;-61
2021/03/26 07:19:22;;;;;;;23.60;14.55;;;12.00;59.80;;;;;;2042346;28;20045;-61
2021/03/26 07:21:01;;;;;;;21.95;15.02;;;12.00;59.70;;;;;;2060499;28;20038;-60
2021/03/26 07:22:51;;;;;;;20.35;14.20;;;12.10;59.60;;;;;;2070894;28;20038;-61
2021/03/26 07:24:33;;;;;;;22.70;14.55;;;12.10;59.60;;;;;;2069792;28;20034;-60
2021/03/26 07:26:15;;;;;;;18.83;13.60;;;12.20;59.60;;;;;;2069107;28;20034;-61
2021/03/26 07:28:01;;;;;;;22.67;15.27;;;12.20;59.60;;;;;;2058576;28;20041;-61
2021/03/26 07:29:49;;;;;;;24.45;15.80;;;12.20;59.50;;;;;;2071295;28;20120;-61
2021/03/26 07:31:28;;;;;;;19.92;15.07;;;12.30;59.50;;;;;;2067599;28;20101;-60
2021/03/26 07:33:12;;;;;;;23.55;15.05;;;12.30;59.50;;;;;;2059638;28;20037;-61
2021/03/26 07:35:07;;;;;;;24.35;14.73;;;12.30;59.50;;;;;;2050874;28;20467;-61
2021/03/26 07:37:09;;;;;;;21.52;14.60;;;12.40;59.50;;;;;;2042565;28;20032;-60
2021/03/26 07:39:08;;;;;;;21.42;14.13;;;12.40;59.50;;;;;;2057966;28;20045;-60
2021/03/26 07:40:52;;;;;;;23.83;14.93;;;12.50;59.50;;;;;;2062693;28;20525;-60
2021/03/26 07:42:38;;;;;;;23.52;16.52;;;12.50;59.40;;;;;;2059666;28;20129;-60
2021/03/26 07:44:12;;;;;;;21.23;14.27;;;12.60;59.30;;;;;;2070580;28;20041;-60
2021/03/26 07:46:24;;;;;;;24.30;15.32;;;12.60;59.30;;;;;;2064082;28;20046;-60
2021/03/26 07:48:01;;;;;;;20.75;14.50;;;12.60;59.40;;;;;;2034386;29;20511;-60
2021/03/26 07:49:42;;;;;;;21.00;13.50;;;12.70;59.30;;;;;;2041733;28;20019;-58